Time;durP1;ratioP1;P1;durP2;ratioP2;P2;SDS_P1;SDS_P2;PMS_P1;PMS_P2;Temp;Humidity;BMP_temperature;BMP_pressure;BME280_temperature;BME280_humidity;BME280_pressure;Samples;Min_cycle;Max_cycle;Signal;HPM_P1;HPM_P2
2023/12/07 00:01:15;;;;;;;8.95;5.35;;;;;;;;;;6175904;23;20385;-80
2023/12/07 00:04:01;;;;;;;10.60;5.40;;;;;;;;;;6196247;23;20126;-80
2023/12/07 00:06:46;;;;;;;10.02;5.55;;;;;;;;;;6176191;23;20474;-80
2023/12/07 00:09:31;;;;;;;10.43;5.85;;;;;;;;;;6196719;23;20002;-80
2023/12/07 00:12:16;;;;;;;10.57;5.55;;;;;;;;;;6174451;23;20035;-80
2023/12/07 00:15:02;;;;;;;9.15;5.68;;;;;;;;;;6196114;23;19997;-79
2023/12/07 00:17:47;;;;;;;11.00;6.30;;;;;;;;;;6175627;23;20011;-79
2023/12/07 00:20:33;;;;;;;9.90;6.43;;;;;;;;;;6185255;23;20023;-79
2023/12/07 00:23:18;;;;;;;10.15;5.82;;;;;;;;;;6175560;23;20009;-79
2023/12/07 00:26:04;;;;;;;9.50;5.47;;;;;;;;;;6175296;23;20001;-79
2023/12/07 00:28:49;;;;;;;9.02;5.82;;;;;;;;;;6196563;23;20438;-79
2023/12/07 00:31:34;;;;;;;11.00;5.80;;;;;;;;;;6173665;23;20001;-79
2023/12/07 00:34:20;;;;;;;11.05;5.32;;;;;;;;;;6174777;23;20057;-79
2023/12/07 00:37:05;;;;;;;12.80;6.03;;;;;;;;;;6174865;23;20001;-79
2023/12/07 00:39:50;;;;;;;9.30;5.53;;;;;;;;;;6176044;23;20033;-81
2023/12/07 00:42:36;;;;;;;10.15;5.50;;;;;;;;;;6175164;23;20004;-80
2023/12/07 00:45:21;;;;;;;10.68;5.75;;;;;;;;;;6196525;23;20001;-80
2023/12/07 00:48:07;;;;;;;13.95;6.50;;;;;;;;;;6174894;23;20005;-80
2023/12/07 00:50:52;;;;;;;11.25;5.70;;;;;;;;;;6174831;23;20347;-79
2023/12/07 00:53:38;;;;;;;9.18;5.03;;;;;;;;;;6173358;23;20349;-80
2023/12/07 00:56:23;;;;;;;12.63;6.22;;;;;;;;;;6195439;23;20461;-80
2023/12/07 00:59:08;;;;;;;9.75;5.60;;;;;;;;;;6173532;23;20025;-81
2023/12/07 01:01:53;;;;;;;9.13;5.28;;;;;;;;;;6195804;23;20117;-80
2023/12/07 01:04:38;;;;;;;9.25;5.57;;;;;;;;;;6195778;23;20465;-80
2023/12/07 01:07:24;;;;;;;11.27;6.30;;;;;;;;;;6175303;23;20439;-80
2023/12/07 01:10:09;;;;;;;11.85;5.90;;;;;;;;;;6175445;23;20084;-79
2023/12/07 01:12:54;;;;;;;10.00;5.63;;;;;;;;;;6174515;23;19997;-79
2023/12/07 01:15:39;;;;;;;10.23;5.40;;;;;;;;;;6152941;23;20001;-81
2023/12/07 01:18:25;;;;;;;9.77;5.72;;;;;;;;;;6175080;23;20048;-80
2023/12/07 01:21:10;;;;;;;10.30;5.93;;;;;;;;;;6184117;23;20021;-79
2023/12/07 01:23:56;;;;;;;10.68;6.03;;;;;;;;;;6184195;23;20007;-80
2023/12/07 01:26:41;;;;;;;10.88;5.57;;;;;;;;;;6205964;23;20004;-80
2023/12/07 01:29:27;;;;;;;10.25;6.05;;;;;;;;;;6184074;23;20063;-79
2023/12/07 01:32:12;;;;;;;10.70;5.07;;;;;;;;;;6182584;23;20040;-80
2023/12/07 01:34:57;;;;;;;8.93;5.25;;;;;;;;;;6183998;23;20452;-80
2023/12/07 01:37:43;;;;;;;12.63;5.07;;;;;;;;;;6184524;23;20004;-79
2023/12/07 01:40:28;;;;;;;11.82;5.53;;;;;;;;;;6183594;23;20004;-80
2023/12/07 01:43:13;;;;;;;8.57;5.35;;;;;;;;;;6184200;23;20004;-79
2023/12/07 01:45:59;;;;;;;7.53;4.80;;;;;;;;;;6183913;23;20000;-79
2023/12/07 01:48:48;;;;;;;8.95;5.07;;;;;;;;;;6204543;23;20484;-79
2023/12/07 01:51:33;;;;;;;9.57;5.00;;;;;;;;;;6203022;23;20552;-80
2023/12/07 01:54:19;;;;;;;8.48;4.28;;;;;;;;;;6183612;23;20234;-81
2023/12/07 01:57:04;;;;;;;10.80;5.15;;;;;;;;;;6183709;23;20087;-80
2023/12/07 01:59:50;;;;;;;11.25;4.72;;;;;;;;;;6183293;23;20005;-80
2023/12/07 02:02:35;;;;;;;9.07;5.00;;;;;;;;;;6183591;23;20004;-80
2023/12/07 02:05:21;;;;;;;10.68;5.30;;;;;;;;;;6183827;23;19997;-80
2023/12/07 02:08:06;;;;;;;7.90;4.45;;;;;;;;;;6182472;23;19997;-81
2023/12/07 02:10:52;;;;;;;9.00;4.90;;;;;;;;;;6182494;23;20005;-79
2023/12/07 02:13:38;;;;;;;8.82;4.32;;;;;;;;;;6183248;23;20072;-79
2023/12/07 02:16:29;;;;;;;7.28;4.25;;;;;;;;;;6183654;23;20071;-79
2023/12/07 02:19:47;;;;;;;6.90;3.92;;;;;;;;;;6182893;23;20050;-79
2023/12/07 02:22:37;;;;;;;7.50;4.13;;;;;;;;;;6123631;23;20009;-80
2023/12/07 02:25:35;;;;;;;8.95;4.88;;;;;;;;;;6185235;23;20047;-80
2023/12/07 02:28:20;;;;;;;7.47;4.40;;;;;;;;;;6183678;23;20083;-80
2023/12/07 02:31:05;;;;;;;8.20;4.85;;;;;;;;;;6185303;23;19997;-79
2023/12/07 02:33:51;;;;;;;6.85;4.10;;;;;;;;;;6206615;23;20038;-80
2023/12/07 02:36:37;;;;;;;8.40;4.18;;;;;;;;;;6185354;23;19993;-79
2023/12/07 02:39:23;;;;;;;7.28;4.85;;;;;;;;;;6186137;23;20001;-79
2023/12/07 02:42:09;;;;;;;6.75;3.88;;;;;;;;;;6185206;23;20058;-79
2023/12/07 02:44:54;;;;;;;7.70;3.85;;;;;;;;;;6184527;23;20079;-79
2023/12/07 02:47:40;;;;;;;9.43;4.60;;;;;;;;;;6185082;23;20024;-79
2023/12/07 02:50:25;;;;;;;6.97;4.28;;;;;;;;;;6185080;23;20098;-78
2023/12/07 02:53:11;;;;;;;9.38;4.60;;;;;;;;;;6185833;23;20001;-79
2023/12/07 02:55:56;;;;;;;8.05;4.47;;;;;;;;;;6184931;23;20005;-79
2023/12/07 02:58:41;;;;;;;9.55;4.50;;;;;;;;;;6205826;23;20000;-78
2023/12/07 03:01:26;;;;;;;10.43;5.65;;;;;;;;;;6187196;23;20357;-78
2023/12/07 03:04:12;;;;;;;9.63;5.00;;;;;;;;;;6185494;23;20005;-78
2023/12/07 03:06:57;;;;;;;11.23;4.18;;;;;;;;;;6190007;23;20039;-78
2023/12/07 03:09:42;;;;;;;9.55;4.43;;;;;;;;;;6189323;23;20080;-80
2023/12/07 03:12:28;;;;;;;10.15;4.78;;;;;;;;;;6189386;23;20086;-80
2023/12/07 03:15:13;;;;;;;9.13;3.92;;;;;;;;;;6189040;23;20054;-80
2023/12/07 03:17:58;;;;;;;9.02;4.60;;;;;;;;;;6189424;23;19997;-80
2023/12/07 03:20:44;;;;;;;8.13;4.30;;;;;;;;;;6177724;23;20515;-80
2023/12/07 03:23:29;;;;;;;9.73;4.82;;;;;;;;;;6178485;23;20143;-80
2023/12/07 03:26:14;;;;;;;8.60;4.80;;;;;;;;;;6180293;23;20032;-80
2023/12/07 03:28:59;;;;;;;8.07;4.53;;;;;;;;;;6179666;23;19997;-79
2023/12/07 03:31:44;;;;;;;8.27;4.40;;;;;;;;;;6200688;23;20028;-79
2023/12/07 03:34:30;;;;;;;8.57;4.65;;;;;;;;;;6180080;23;19997;-80
2023/12/07 03:37:15;;;;;;;8.90;5.22;;;;;;;;;;6179485;23;20338;-80
2023/12/07 03:40:00;;;;;;;9.55;5.35;;;;;;;;;;6179069;23;20001;-80
2023/12/07 03:42:45;;;;;;;10.85;4.55;;;;;;;;;;6180042;23;20003;-81
2023/12/07 03:45:31;;;;;;;9.63;4.78;;;;;;;;;;6179646;23;20015;-79
2023/12/07 03:48:16;;;;;;;7.90;4.13;;;;;;;;;;6179966;23;20080;-80
2023/12/07 03:51:01;;;;;;;8.35;4.68;;;;;;;;;;6179939;23;20404;-79
2023/12/07 03:53:47;;;;;;;7.07;4.20;;;;;;;;;;6201114;23;20337;-79
2023/12/07 03:56:32;;;;;;;9.88;4.82;;;;;;;;;;6179948;23;20001;-79
2023/12/07 03:59:17;;;;;;;10.43;5.22;;;;;;;;;;6177853;23;20001;-79
2023/12/07 04:02:03;;;;;;;9.95;4.30;;;;;;;;;;6176351;23;20000;-79
2023/12/07 04:04:48;;;;;;;9.30;5.18;;;;;;;;;;6177301;23;19997;-79
2023/12/07 04:07:34;;;;;;;9.38;3.88;;;;;;;;;;6175089;23;20183;-78
2023/12/07 04:10:19;;;;;;;9.45;4.93;;;;;;;;;;6175822;23;20096;-79
2023/12/07 04:13:06;;;;;;;8.85;4.88;;;;;;;;;;6176202;23;20000;-78
2023/12/07 04:15:51;;;;;;;9.05;4.40;;;;;;;;;;6174260;23;20010;-79
2023/12/07 04:18:36;;;;;;;10.25;4.72;;;;;;;;;;6175615;23;19993;-79
2023/12/07 04:21:22;;;;;;;8.20;4.28;;;;;;;;;;6175655;23;20071;-79
2023/12/07 04:24:07;;;;;;;8.98;4.95;;;;;;;;;;6196249;23;20009;-79
2023/12/07 04:26:52;;;;;;;8.30;4.82;;;;;;;;;;6175647;23;20058;-80
2023/12/07 04:29:37;;;;;;;9.55;5.28;;;;;;;;;;6175369;23;20005;-80
2023/12/07 04:32:25;;;;;;;9.75;5.07;;;;;;;;;;6175623;23;20009;-79
2023/12/07 04:35:11;;;;;;;10.73;6.03;;;;;;;;;;6172693;23;20005;-81
2023/12/07 04:37:56;;;;;;;8.23;4.72;;;;;;;;;;6175397;23;20001;-80
2023/12/07 04:40:42;;;;;;;10.55;5.57;;;;;;;;;;6196619;23;20008;-80
2023/12/07 04:43:27;;;;;;;10.82;5.97;;;;;;;;;;6175647;23;20024;-81
2023/12/07 04:46:12;;;;;;;9.85;5.68;;;;;;;;;;6175347;23;20005;-79
2023/12/07 04:48:58;;;;;;;11.13;5.65;;;;;;;;;;6174832;23;20441;-79
2023/12/07 04:51:46;;;;;;;10.80;6.25;;;;;;;;;;6175758;23;20132;-80
2023/12/07 04:54:31;;;;;;;11.85;5.65;;;;;;;;;;6173907;23;20366;-80
2023/12/07 04:57:16;;;;;;;9.88;6.07;;;;;;;;;;6175371;23;19997;-79
2023/12/07 05:00:06;;;;;;;10.75;5.95;;;;;;;;;;6175214;23;20079;-80
2023/12/07 05:02:51;;;;;;;11.90;5.60;;;;;;;;;;6176183;23;20004;-79
2023/12/07 05:05:36;;;;;;;13.32;6.60;;;;;;;;;;6196417;23;20051;-79
2023/12/07 05:08:22;;;;;;;13.00;5.95;;;;;;;;;;6175257;23;20007;-80
2023/12/07 05:11:07;;;;;;;11.35;6.75;;;;;;;;;;6195887;23;20500;-79
2023/12/07 05:13:52;;;;;;;9.95;5.70;;;;;;;;;;6174241;23;19997;-79
2023/12/07 05:16:38;;;;;;;10.63;6.50;;;;;;;;;;6176012;23;20086;-79
2023/12/07 05:19:24;;;;;;;12.60;6.40;;;;;;;;;;6159175;23;20009;-79
2023/12/07 05:22:09;;;;;;;12.85;6.28;;;;;;;;;;6185293;23;20562;-79
2023/12/07 05:24:55;;;;;;;11.30;6.07;;;;;;;;;;6184700;23;20007;-78
2023/12/07 05:27:40;;;;;;;11.10;6.65;;;;;;;;;;6184491;23;20001;-78
2023/12/07 05:30:25;;;;;;;13.32;6.88;;;;;;;;;;6183116;23;19996;-77
2023/12/07 05:33:11;;;;;;;11.85;6.57;;;;;;;;;;6185104;23;19997;-78
2023/12/07 05:35:56;;;;;;;11.38;5.68;;;;;;;;;;6184211;23;20035;-78
2023/12/07 05:38:42;;;;;;;12.85;6.85;;;;;;;;;;6185500;23;20000;-79
2023/12/07 05:41:27;;;;;;;13.38;6.57;;;;;;;;;;6185242;23;20008;-80
2023/12/07 05:44:12;;;;;;;11.27;5.95;;;;;;;;;;6185018;23;20004;-80
2023/12/07 05:46:57;;;;;;;13.25;7.35;;;;;;;;;;6205816;23;20001;-80
2023/12/07 05:49:43;;;;;;;13.10;7.50;;;;;;;;;;6182916;23;20065;-79
2023/12/07 05:52:28;;;;;;;10.73;6.60;;;;;;;;;;6205601;23;20068;-79
2023/12/07 05:55:13;;;;;;;15.15;7.55;;;;;;;;;;6184500;23;20011;-81
2023/12/07 05:57:59;;;;;;;11.20;6.68;;;;;;;;;;6182306;23;20001;-79
2023/12/07 06:00:46;;;;;;;12.88;6.03;;;;;;;;;;6186509;23;20004;-80
2023/12/07 06:03:32;;;;;;;11.70;6.63;;;;;;;;;;6187072;23;20000;-80
2023/12/07 06:06:17;;;;;;;10.88;6.43;;;;;;;;;;6207089;23;20070;-80
2023/12/07 06:09:03;;;;;;;11.75;6.80;;;;;;;;;;6185938;23;20000;-79
2023/12/07 06:11:48;;;;;;;14.45;6.68;;;;;;;;;;6166005;23;20017;-80
2023/12/07 06:14:33;;;;;;;12.25;6.82;;;;;;;;;;6187445;23;20004;-79
2023/12/07 06:17:19;;;;;;;12.52;6.63;;;;;;;;;;6187350;23;20019;-78
2023/12/07 06:20:05;;;;;;;12.07;6.22;;;;;;;;;;6177632;23;20032;-79
2023/12/07 06:22:50;;;;;;;14.27;6.50;;;;;;;;;;6198574;23;20076;-78
2023/12/07 06:25:36;;;;;;;12.30;6.70;;;;;;;;;;6178190;23;20029;-78
2023/12/07 06:28:21;;;;;;;11.05;6.20;;;;;;;;;;6163688;23;20031;-79
2023/12/07 06:31:06;;;;;;;11.93;7.35;;;;;;;;;;6174617;23;20020;-78
2023/12/07 06:33:53;;;;;;;13.10;6.22;;;;;;;;;;6178276;23;20295;-79
2023/12/07 06:36:38;;;;;;;17.35;7.45;;;;;;;;;;6179033;23;20023;-79
2023/12/07 06:39:22;;;;;;;16.17;7.00;;;;;;;;;;6180961;23;20003;-79
2023/12/07 06:42:08;;;;;;;10.02;6.18;;;;;;;;;;6181403;23;20012;-78
2023/12/07 06:44:54;;;;;;;11.57;6.45;;;;;;;;;;6176216;23;20004;-84
2023/12/07 06:47:40;;;;;;;15.07;6.68;;;;;;;;;;6178463;23;20008;-80
2023/12/07 06:50:25;;;;;;;14.77;7.72;;;;;;;;;;6173637;23;20028;-89
2023/12/07 06:53:10;;;;;;;12.32;6.93;;;;;;;;;;6179222;23;20057;-84
2023/12/07 06:55:56;;;;;;;13.88;7.35;;;;;;;;;;6179014;23;20010;-83
2023/12/07 06:58:41;;;;;;;12.32;7.60;;;;;;;;;;6180021;23;20001;-85
2023/12/07 07:01:26;;;;;;;12.02;7.45;;;;;;;;;;6177534;23;20059;-86
2023/12/07 07:04:12;;;;;;;13.50;7.38;;;;;;;;;;6175525;23;20001;-86
2023/12/07 07:06:58;;;;;;;13.05;6.68;;;;;;;;;;6179003;23;20001;-92
2023/12/07 07:09:44;;;;;;;13.25;7.68;;;;;;;;;;6179723;23;20093;-91
2023/12/07 07:12:29;;;;;;;16.50;7.82;;;;;;;;;;6179112;23;20013;-90
2023/12/07 07:15:14;;;;;;;14.63;7.53;;;;;;;;;;6179736;23;20001;-86
2023/12/07 07:18:00;;;;;;;14.10;7.07;;;;;;;;;;6179963;23;20077;-85
2023/12/07 07:20:46;;;;;;;12.68;7.32;;;;;;;;;;6192531;23;20408;-89
2023/12/07 07:23:33;;;;;;;12.02;7.25;;;;;;;;;;6201235;23;20008;-86
2023/12/07 07:26:19;;;;;;;13.20;7.35;;;;;;;;;;6198778;23;20005;-87
2023/12/07 07:29:04;;;;;;;16.17;8.23;;;;;;;;;;6179389;23;20005;-86
2023/12/07 07:31:49;;;;;;;12.85;7.22;;;;;;;;;;6198576;23;20417;-82
2023/12/07 07:34:35;;;;;;;16.13;7.25;;;;;;;;;;6178011;23;20012;-81
2023/12/07 07:37:20;;;;;;;17.63;8.00;;;;;;;;;;6194037;23;20001;-85
2023/12/07 07:40:06;;;;;;;15.25;8.48;;;;;;;;;;6197761;23;20035;-84
2023/12/07 07:42:52;;;;;;;13.50;7.57;;;;;;;;;;6177606;23;20055;-88
2023/12/07 07:45:37;;;;;;;13.02;7.75;;;;;;;;;;6198865;23;20000;-87
2023/12/07 07:48:22;;;;;;;13.27;7.05;;;;;;;;;;6179522;23;20032;-86
2023/12/07 07:51:08;;;;;;;11.90;7.53;;;;;;;;;;6179098;23;19997;-87
2023/12/07 07:53:56;;;;;;;12.40;7.35;;;;;;;;;;6178003;23;20086;-85
2023/12/07 07:56:43;;;;;;;15.60;7.77;;;;;;;;;;6198505;23;19997;-86
2023/12/07 07:59:28;;;;;;;16.63;8.77;;;;;;;;;;6198821;23;20004;-89
2023/12/07 08:02:13;;;;;;;17.17;7.72;;;;;;;;;;6181391;23;19997;-84
2023/12/07 08:04:58;;;;;;;15.73;9.07;;;;;;;;;;6176350;23;20026;-83
2023/12/07 08:07:44;;;;;;;19.60;9.65;;;;;;;;;;6177296;23;20103;-87
2023/12/07 08:10:29;;;;;;;16.52;7.95;;;;;;;;;;6198921;23;20001;-87
2023/12/07 08:13:14;;;;;;;14.95;8.60;;;;;;;;;;6198656;23;20000;-86
2023/12/07 08:16:00;;;;;;;16.42;8.98;;;;;;;;;;6180579;23;20005;-89
2023/12/07 08:18:45;;;;;;;13.90;8.82;;;;;;;;;;6178440;23;19997;-87
2023/12/07 08:21:39;;;;;;;16.15;8.40;;;;;;;;;;6187924;23;20028;-91
2023/12/07 08:24:25;;;;;;;17.58;8.52;;;;;;;;;;6187635;23;20023;-85
2023/12/07 08:27:10;;;;;;;16.23;8.95;;;;;;;;;;6186699;23;20005;-88
2023/12/07 08:29:55;;;;;;;16.05;9.10;;;;;;;;;;6186314;23;20091;-85
2023/12/07 08:32:41;;;;;;;17.40;9.38;;;;;;;;;;6186227;23;20102;-87
2023/12/07 08:35:26;;;;;;;15.98;8.70;;;;;;;;;;6186242;23;20007;-86
2023/12/07 08:38:12;;;;;;;12.93;7.65;;;;;;;;;;6188230;23;19997;-88
2023/12/07 08:40:58;;;;;;;14.77;8.65;;;;;;;;;;6184939;23;20000;-86
2023/12/07 08:43:43;;;;;;;13.10;7.85;;;;;;;;;;6182871;23;20036;-86
2023/12/07 08:46:28;;;;;;;13.25;7.50;;;;;;;;;;6188472;23;20012;-89
2023/12/07 08:49:15;;;;;;;15.57;8.68;;;;;;;;;;6183382;23;20062;-90
2023/12/07 08:52:00;;;;;;;12.95;7.47;;;;;;;;;;6186869;23;20001;-89
2023/12/07 08:54:46;;;;;;;17.45;8.20;;;;;;;;;;6186838;23;19997;-89
2023/12/07 08:57:32;;;;;;;16.38;8.68;;;;;;;;;;6186905;23;20012;-88
2023/12/07 09:00:22;;;;;;;15.02;8.45;;;;;;;;;;6186455;23;20001;-88
2023/12/07 09:03:08;;;;;;;12.68;7.65;;;;;;;;;;6185633;23;20301;-87
2023/12/07 09:05:54;;;;;;;15.88;8.10;;;;;;;;;;6185789;23;20532;-89
2023/12/07 09:08:39;;;;;;;13.27;7.63;;;;;;;;;;6186659;23;20035;-90
2023/12/07 09:14:08;;;;;;;16.90;8.77;;;;;;;;;;6231513;23;20020;-90
2023/12/07 09:17:06;;;;;;;14.52;8.35;;;;;;;;;;6211911;23;20007;-90
2023/12/07 09:26:48;;;;;;;13.55;7.88;;;;;;;;;;6240548;23;20003;-88
2023/12/07 09:29:34;;;;;;;14.40;8.00;;;;;;;;;;6216897;23;20008;-87
2023/12/07 09:32:19;;;;;;;12.18;7.38;;;;;;;;;;6216701;23;20314;-89
2023/12/07 09:35:08;;;;;;;11.05;6.78;;;;;;;;;;6216587;23;20000;-90
2023/12/07 09:37:53;;;;;;;12.10;6.83;;;;;;;;;;6220955;23;20000;-88
2023/12/07 09:40:39;;;;;;;13.40;7.07;;;;;;;;;;6216262;23;20065;-87
2023/12/07 09:43:24;;;;;;;14.20;7.80;;;;;;;;;;6215565;23;19996;-86
2023/12/07 09:46:10;;;;;;;14.00;7.15;;;;;;;;;;6213887;23;20000;-87
2023/12/07 09:48:55;;;;;;;14.70;6.95;;;;;;;;;;6215713;23;20035;-86
2023/12/07 09:51:42;;;;;;;13.77;7.80;;;;;;;;;;6216362;23;20341;-86
2023/12/07 09:54:28;;;;;;;13.45;7.60;;;;;;;;;;6216202;23;19996;-86
2023/12/07 09:57:14;;;;;;;12.50;7.78;;;;;;;;;;6215247;23;20031;-86
2023/12/07 10:00:00;;;;;;;13.63;7.78;;;;;;;;;;6195149;23;19996;-86
2023/12/07 10:02:45;;;;;;;13.70;7.72;;;;;;;;;;6215393;23;19996;-86
2023/12/07 10:05:31;;;;;;;14.15;7.30;;;;;;;;;;6216045;23;20000;-88
2023/12/07 10:08:25;;;;;;;12.40;7.03;;;;;;;;;;6195052;23;20290;-87
2023/12/07 10:11:12;;;;;;;12.00;7.30;;;;;;;;;;6214268;23;20007;-86
2023/12/07 10:14:00;;;;;;;11.88;6.95;;;;;;;;;;6215548;23;20027;-86
2023/12/07 10:16:53;;;;;;;11.45;6.25;;;;;;;;;;6215634;23;19992;-86
2023/12/07 10:19:38;;;;;;;10.55;6.55;;;;;;;;;;6215939;23;20086;-85
2023/12/07 10:22:23;;;;;;;14.43;7.63;;;;;;;;;;6235024;23;20052;-86
2023/12/07 10:25:13;;;;;;;12.20;7.03;;;;;;;;;;6213411;23;20024;-85
2023/12/07 10:27:58;;;;;;;12.77;7.78;;;;;;;;;;6214479;23;19992;-86
2023/12/07 10:30:46;;;;;;;11.98;6.35;;;;;;;;;;6215683;23;20046;-86
2023/12/07 10:33:31;;;;;;;16.20;7.13;;;;;;;;;;6215665;23;20362;-86
2023/12/07 10:36:17;;;;;;;13.18;7.03;;;;;;;;;;6216271;23;20022;-84
2023/12/07 10:39:06;;;;;;;10.75;6.65;;;;;;;;;;6216079;23;19992;-85
2023/12/07 10:41:52;;;;;;;15.57;7.07;;;;;;;;;;6215902;23;20008;-85
2023/12/07 10:44:41;;;;;;;17.10;8.32;;;;;;;;;;6215673;23;20000;-87
2023/12/07 10:47:26;;;;;;;12.85;6.28;;;;;;;;;;6217261;23;20015;-87
2023/12/07 10:50:13;;;;;;;11.05;5.93;;;;;;;;;;6217101;23;20026;-86
2023/12/07 10:53:01;;;;;;;12.63;7.32;;;;;;;;;;6217721;23;19996;-85
2023/12/07 10:55:56;;;;;;;12.18;6.65;;;;;;;;;;6217793;23;20050;-84
2023/12/07 10:58:42;;;;;;;12.50;7.15;;;;;;;;;;6217068;23;20010;-85
2023/12/07 11:01:27;;;;;;;11.55;6.40;;;;;;;;;;6217032;23;20035;-85
2023/12/07 11:04:13;;;;;;;11.65;6.63;;;;;;;;;;6217755;23;20000;-87
2023/12/07 11:07:03;;;;;;;12.68;6.68;;;;;;;;;;6217382;23;20035;-86
2023/12/07 11:09:53;;;;;;;12.32;6.97;;;;;;;;;;6217717;23;19996;-87
2023/12/07 11:12:45;;;;;;;12.00;7.32;;;;;;;;;;6217252;23;20016;-86
2023/12/07 11:15:31;;;;;;;13.57;7.68;;;;;;;;;;6221583;23;20008;-86
2023/12/07 11:18:16;;;;;;;10.98;5.97;;;;;;;;;;6217245;23;20003;-86
2023/12/07 11:21:01;;;;;;;10.77;5.90;;;;;;;;;;6217897;23;20000;-87
2023/12/07 11:23:47;;;;;;;11.40;6.38;;;;;;;;;;6195930;23;20020;-87
2023/12/07 11:26:32;;;;;;;12.35;7.55;;;;;;;;;;6196344;23;20000;-86
2023/12/07 11:29:21;;;;;;;11.07;5.82;;;;;;;;;;6214380;23;20096;-86
2023/12/07 11:32:06;;;;;;;11.43;5.72;;;;;;;;;;6195770;23;20000;-86
2023/12/07 11:34:52;;;;;;;24.45;11.98;;;;;;;;;;6216713;23;20697;-85
2023/12/07 11:37:56;;;;;;;25.88;11.52;;;;;;;;;;6217150;23;19996;-85
2023/12/07 11:40:42;;;;;;;9.38;5.38;;;;;;;;;;6216589;23;20035;-85
2023/12/07 11:43:35;;;;;;;12.40;5.03;;;;;;;;;;6213728;23;20035;-74
2023/12/07 11:46:20;;;;;;;8.27;4.28;;;;;;;;;;6214417;23;20074;-83
2023/12/07 11:49:10;;;;;;;11.88;4.68;;;;;;;;;;6195534;23;20007;-81
2023/12/07 11:51:55;;;;;;;9.20;4.45;;;;;;;;;;6215598;23;20074;-82
2023/12/07 11:54:43;;;;;;;11.52;4.50;;;;;;;;;;6213921;23;20008;-83
2023/12/07 11:57:30;;;;;;;7.13;4.15;;;;;;;;;;6216142;23;20230;-83
2023/12/07 12:00:16;;;;;;;7.97;4.22;;;;;;;;;;6216331;23;20008;-84
2023/12/07 12:03:01;;;;;;;8.90;4.38;;;;;;;;;;6215753;23;20310;-84
2023/12/07 12:05:47;;;;;;;7.35;3.95;;;;;;;;;;6216393;23;20000;-85
2023/12/07 12:08:32;;;;;;;7.28;3.60;;;;;;;;;;6211816;23;20000;-83
2023/12/07 12:11:18;;;;;;;5.50;3.40;;;;;;;;;;6213336;23;20023;-84
2023/12/07 12:14:04;;;;;;;4.93;3.13;;;;;;;;;;6215916;23;20012;-84
2023/12/07 12:16:49;;;;;;;8.23;4.15;;;;;;;;;;6215999;23;19996;-84
2023/12/07 12:19:36;;;;;;;8.27;3.70;;;;;;;;;;6213346;23;20000;-86
2023/12/07 12:22:21;;;;;;;8.45;3.55;;;;;;;;;;6216888;23;20002;-84
2023/12/07 12:25:07;;;;;;;7.63;3.40;;;;;;;;;;6216403;23;20028;-87
2023/12/07 12:27:53;;;;;;;7.32;3.22;;;;;;;;;;6215953;23;20046;-84
2023/12/07 12:30:38;;;;;;;8.98;3.83;;;;;;;;;;6195309;23;20417;-84
2023/12/07 12:33:23;;;;;;;11.88;4.43;;;;;;;;;;6216494;23;20079;-85
2023/12/07 12:36:10;;;;;;;5.25;3.00;;;;;;;;;;6216434;23;20428;-87
2023/12/07 12:38:55;;;;;;;7.82;3.00;;;;;;;;;;6215980;23;20003;-84
2023/12/07 12:41:41;;;;;;;6.90;3.38;;;;;;;;;;6216154;23;20004;-84
2023/12/07 12:44:29;;;;;;;6.05;3.15;;;;;;;;;;6216556;23;20004;-83
2023/12/07 12:47:15;;;;;;;5.97;3.17;;;;;;;;;;6216392;23;20000;-84
2023/12/07 12:50:01;;;;;;;8.95;4.00;;;;;;;;;;6217179;23;19999;-84
2023/12/07 12:52:46;;;;;;;8.93;4.05;;;;;;;;;;6195234;23;20087;-84
2023/12/07 12:55:41;;;;;;;6.78;3.35;;;;;;;;;;6215395;23;20054;-83
2023/12/07 12:58:27;;;;;;;8.73;4.13;;;;;;;;;;6215095;23;20004;-81
2023/12/07 13:01:12;;;;;;;9.70;4.45;;;;;;;;;;6214887;23;20007;-82
2023/12/07 13:03:58;;;;;;;9.82;3.92;;;;;;;;;;6195932;23;19996;-80
2023/12/07 13:06:44;;;;;;;10.45;4.47;;;;;;;;;;6216494;23;20004;-81
2023/12/07 13:09:32;;;;;;;7.43;4.32;;;;;;;;;;6215286;22;20000;-83
2023/12/07 13:12:18;;;;;;;9.05;4.47;;;;;;;;;;6212684;23;20016;-84
2023/12/07 13:15:03;;;;;;;7.38;3.95;;;;;;;;;;6214778;23;20421;-80
2023/12/07 13:17:48;;;;;;;7.35;4.47;;;;;;;;;;6215658;23;20007;-81
2023/12/07 13:20:35;;;;;;;7.82;4.28;;;;;;;;;;6213089;23;20450;-83
2023/12/07 13:23:20;;;;;;;8.52;4.28;;;;;;;;;;6215026;23;20003;-82
2023/12/07 13:26:06;;;;;;;8.73;4.43;;;;;;;;;;6215599;23;19996;-84
2023/12/07 13:28:52;;;;;;;8.63;4.57;;;;;;;;;;6215071;23;20090;-83
2023/12/07 13:31:38;;;;;;;8.80;4.25;;;;;;;;;;6216175;23;20011;-83
2023/12/07 13:34:23;;;;;;;8.23;5.05;;;;;;;;;;6214757;23;20046;-83
2023/12/07 13:37:08;;;;;;;13.85;4.88;;;;;;;;;;6214981;23;20098;-82
2023/12/07 13:39:57;;;;;;;9.88;4.20;;;;;;;;;;6214365;23;19996;-82
2023/12/07 13:42:42;;;;;;;9.20;3.83;;;;;;;;;;6214798;23;20023;-82
2023/12/07 13:45:28;;;;;;;8.18;4.60;;;;;;;;;;6215191;23;20659;-83
2023/12/07 13:48:13;;;;;;;7.90;4.30;;;;;;;;;;6215651;23;20039;-83
2023/12/07 13:50:58;;;;;;;8.63;5.03;;;;;;;;;;6214740;23;20004;-82
2023/12/07 13:53:43;;;;;;;10.02;4.93;;;;;;;;;;6213569;23;20003;-83
2023/12/07 13:56:29;;;;;;;7.40;4.20;;;;;;;;;;6215619;23;19997;-82
2023/12/07 13:59:14;;;;;;;7.05;4.05;;;;;;;;;;6214682;23;20007;-83
2023/12/07 14:01:59;;;;;;;8.32;4.47;;;;;;;;;;6215236;23;20004;-83
2023/12/07 14:04:45;;;;;;;7.93;4.45;;;;;;;;;;6215380;23;20024;-83
2023/12/07 14:07:34;;;;;;;10.95;5.25;;;;;;;;;;6214668;23;20008;-83
2023/12/07 14:10:19;;;;;;;15.75;6.07;;;;;;;;;;6214619;23;20000;-83
2023/12/07 14:13:04;;;;;;;13.32;5.88;;;;;;;;;;6215158;23;20609;-84
2023/12/07 14:15:50;;;;;;;13.55;7.03;;;;;;;;;;6215659;23;20022;-83
2023/12/07 14:18:35;;;;;;;13.02;6.30;;;;;;;;;;6215133;23;20713;-84
2023/12/07 14:21:21;;;;;;;8.95;5.22;;;;;;;;;;6214942;23;20516;-86
2023/12/07 14:24:07;;;;;;;9.57;4.93;;;;;;;;;;6217141;23;20001;-81
2023/12/07 14:26:53;;;;;;;10.55;4.85;;;;;;;;;;6217332;23;20019;-82
2023/12/07 14:29:39;;;;;;;9.50;5.18;;;;;;;;;;6218243;23;20337;-83
2023/12/07 14:32:24;;;;;;;7.47;3.83;;;;;;;;;;6218395;23;20015;-83
2023/12/07 14:35:09;;;;;;;9.15;4.80;;;;;;;;;;6234715;23;20335;-87
2023/12/07 14:37:54;;;;;;;10.45;3.70;;;;;;;;;;6225898;23;19996;-82
2023/12/07 14:40:40;;;;;;;6.45;3.10;;;;;;;;;;6244795;22;20019;-84
2023/12/07 14:43:24;;;;;;;9.27;3.97;;;;;;;;;;6260030;22;20068;-83
2023/12/07 14:46:09;;;;;;;7.30;3.10;;;;;;;;;;6242295;23;19993;-82
2023/12/07 14:48:55;;;;;;;6.35;3.45;;;;;;;;;;6253203;23;20020;-83
2023/12/07 14:51:40;;;;;;;11.57;3.30;;;;;;;;;;6218580;23;20505;-83
2023/12/07 14:54:26;;;;;;;9.32;4.78;;;;;;;;;;6218049;23;20358;-83
2023/12/07 14:57:11;;;;;;;7.32;2.85;;;;;;;;;;6217584;23;20033;-83
2023/12/07 14:59:58;;;;;;;6.07;2.72;;;;;;;;;;6217016;23;20000;-83
2023/12/07 15:02:43;;;;;;;4.25;2.40;;;;;;;;;;6217861;23;20008;-85
2023/12/07 15:05:28;;;;;;;6.45;2.50;;;;;;;;;;6215748;23;20003;-83
2023/12/07 15:08:14;;;;;;;5.20;2.78;;;;;;;;;;6215666;23;19996;-82
2023/12/07 15:10:59;;;;;;;9.45;2.70;;;;;;;;;;6216779;23;20003;-83
2023/12/07 15:13:45;;;;;;;5.63;2.72;;;;;;;;;;6215638;23;20016;-83
2023/12/07 15:16:30;;;;;;;5.72;2.60;;;;;;;;;;6217797;23;20000;-82
2023/12/07 15:19:16;;;;;;;5.28;2.63;;;;;;;;;;6216133;23;20038;-83
2023/12/07 15:22:02;;;;;;;3.72;2.10;;;;;;;;;;6216541;23;20000;-82
2023/12/07 15:24:54;;;;;;;8.70;2.80;;;;;;;;;;6216647;23;20057;-83
2023/12/07 15:27:39;;;;;;;6.18;2.67;;;;;;;;;;6215657;23;20007;-83
2023/12/07 15:30:26;;;;;;;8.70;2.58;;;;;;;;;;6214780;23;20042;-83
2023/12/07 15:33:11;;;;;;;7.43;3.05;;;;;;;;;;6215467;23;20387;-84
2023/12/07 15:35:57;;;;;;;10.27;3.03;;;;;;;;;;6217582;23;20028;-85
2023/12/07 15:38:42;;;;;;;6.35;3.50;;;;;;;;;;6214921;23;20519;-84
2023/12/07 15:41:27;;;;;;;3.97;2.80;;;;;;;;;;6215818;23;20007;-84
2023/12/07 15:44:13;;;;;;;8.40;2.55;;;;;;;;;;6215153;23;20464;-83
2023/12/07 15:46:58;;;;;;;6.88;3.40;;;;;;;;;;6215778;23;20007;-83
2023/12/07 15:49:46;;;;;;;6.20;2.58;;;;;;;;;;6215236;23;20937;-85
2023/12/07 15:52:33;;;;;;;7.72;3.17;;;;;;;;;;6215929;23;20720;-85
2023/12/07 15:55:18;;;;;;;8.18;2.63;;;;;;;;;;6216189;23;19996;-85
2023/12/07 15:58:05;;;;;;;6.72;3.10;;;;;;;;;;6217789;23;20317;-84
2023/12/07 16:00:51;;;;;;;7.32;2.92;;;;;;;;;;6211471;23;20457;-81
2023/12/07 16:03:44;;;;;;;7.57;2.88;;;;;;;;;;6216489;23;19996;-83
2023/12/07 16:06:32;;;;;;;8.13;3.10;;;;;;;;;;6213877;23;20004;-83
2023/12/07 16:09:17;;;;;;;10.38;3.03;;;;;;;;;;6216749;22;20011;-83
2023/12/07 16:12:04;;;;;;;9.82;4.45;;;;;;;;;;6215539;23;20000;-83
2023/12/07 16:14:55;;;;;;;10.70;4.00;;;;;;;;;;6216284;23;20007;-83
2023/12/07 16:17:40;;;;;;;7.05;3.78;;;;;;;;;;6216184;23;20408;-82
2023/12/07 16:20:26;;;;;;;7.45;3.45;;;;;;;;;;6215979;23;20000;-83
2023/12/07 16:23:11;;;;;;;9.73;3.60;;;;;;;;;;6216223;23;20015;-83
2023/12/07 16:25:56;;;;;;;12.63;4.35;;;;;;;;;;6216877;23;20000;-83
2023/12/07 16:28:42;;;;;;;9.60;4.00;;;;;;;;;;6217047;23;19996;-83
2023/12/07 16:31:28;;;;;;;7.13;3.60;;;;;;;;;;6215853;23;20004;-83
2023/12/07 16:34:13;;;;;;;11.40;4.80;;;;;;;;;;6216385;23;19996;-83
2023/12/07 16:36:58;;;;;;;10.27;4.30;;;;;;;;;;6216759;23;20099;-82